sensor_id;sensor_type;location;lat;lon;timestamp;P1;durP1;ratioP1;P2;durP2;ratioP2
37785;SDS011;23625;48.784;9.336;2022-11-20T00:01:15;25.88;;;11.05;;
37785;SDS011;23625;48.784;9.336;2022-11-20T00:03:47;23.92;;;9.43;;
37785;SDS011;23625;48.784;9.336;2022-11-20T00:06:14;19.63;;;8.63;;
37785;SDS011;23625;48.784;9.336;2022-11-20T00:08:41;16.80;;;8.68;;
37785;SDS011;23625;48.784;9.336;2022-11-20T00:11:08;13.63;;;7.05;;
37785;SDS011;23625;48.784;9.336;2022-11-20T00:13:38;11.80;;;6.72;;
37785;SDS011;23625;48.784;9.336;2022-11-20T00:16:04;14.95;;;7.22;;
37785;SDS011;23625;48.784;9.336;2022-11-20T00:18:32;15.82;;;7.50;;
37785;SDS011;23625;48.784;9.336;2022-11-20T00:21:05;15.25;;;7.40;;
37785;SDS011;23625;48.784;9.336;2022-11-20T00:23:32;14.15;;;6.85;;
37785;SDS011;23625;48.784;9.336;2022-11-20T00:26:02;18.42;;;7.25;;
37785;SDS011;23625;48.784;9.336;2022-11-20T00:28:29;13.95;;;7.43;;
37785;SDS011;23625;48.784;9.336;2022-11-20T00:31:16;12.95;;;7.38;;
37785;SDS011;23625;48.784;9.336;2022-11-20T00:33:40;14.10;;;6.97;;
37785;SDS011;23625;48.784;9.336;2022-11-20T00:36:11;17.80;;;7.22;;
37785;SDS011;23625;48.784;9.336;2022-11-20T00:38:38;13.57;;;7.07;;
37785;SDS011;23625;48.784;9.336;2022-11-20T00:41:05;11.40;;;6.78;;
37785;SDS011;23625;48.784;9.336;2022-11-20T00:43:32;14.73;;;7.20;;
37785;SDS011;23625;48.784;9.336;2022-11-20T00:45:58;15.77;;;7.55;;
37785;SDS011;23625;48.784;9.336;2022-11-20T00:48:25;14.60;;;6.97;;
37785;SDS011;23625;48.784;9.336;2022-11-20T00:50:51;16.77;;;6.90;;
37785;SDS011;23625;48.784;9.336;2022-11-20T00:53:17;17.27;;;7.78;;
37785;SDS011;23625;48.784;9.336;2022-11-20T00:55:43;14.32;;;7.20;;
37785;SDS011;23625;48.784;9.336;2022-11-20T00:58:16;16.35;;;6.75;;
37785;SDS011;23625;48.784;9.336;2022-11-20T01:00:42;14.68;;;6.50;;
37785;SDS011;23625;48.784;9.336;2022-11-20T01:03:07;15.20;;;6.07;;
37785;SDS011;23625;48.784;9.336;2022-11-20T01:05:34;13.20;;;6.13;;
37785;SDS011;23625;48.784;9.336;2022-11-20T01:08:00;12.30;;;6.20;;
37785;SDS011;23625;48.784;9.336;2022-11-20T01:10:26;14.25;;;6.32;;
37785;SDS011;23625;48.784;9.336;2022-11-20T01:12:51;10.90;;;5.75;;
37785;SDS011;23625;48.784;9.336;2022-11-20T01:15:37;10.50;;;5.57;;
37785;SDS011;23625;48.784;9.336;2022-11-20T01:18:02;11.68;;;5.22;;
37785;SDS011;23625;48.784;9.336;2022-11-20T01:20:28;13.95;;;5.63;;
37785;SDS011;23625;48.784;9.336;2022-11-20T01:22:54;12.10;;;5.20;;
37785;SDS011;23625;48.784;9.336;2022-11-20T01:25:19;13.13;;;6.00;;
37785;SDS011;23625;48.784;9.336;2022-11-20T01:27:45;11.63;;;5.55;;
37785;SDS011;23625;48.784;9.336;2022-11-20T01:30:11;10.15;;;5.47;;
37785;SDS011;23625;48.784;9.336;2022-11-20T01:32:37;8.68;;;4.80;;
37785;SDS011;23625;48.784;9.336;2022-11-20T01:35:02;9.93;;;5.40;;
37785;SDS011;23625;48.784;9.336;2022-11-20T01:37:28;10.52;;;5.15;;
37785;SDS011;23625;48.784;9.336;2022-11-20T01:39:54;11.10;;;4.57;;
37785;SDS011;23625;48.784;9.336;2022-11-20T01:42:19;10.27;;;4.80;;
37785;SDS011;23625;48.784;9.336;2022-11-20T01:45:42;13.52;;;4.88;;
37785;SDS011;23625;48.784;9.336;2022-11-20T01:48:07;7.45;;;4.65;;
37785;SDS011;23625;48.784;9.336;2022-11-20T01:50:33;8.68;;;4.07;;
37785;SDS011;23625;48.784;9.336;2022-11-20T01:53:00;7.20;;;3.95;;
37785;SDS011;23625;48.784;9.336;2022-11-20T01:55:34;7.82;;;3.88;;
37785;SDS011;23625;48.784;9.336;2022-11-20T01:58:04;7.70;;;4.00;;
37785;SDS011;23625;48.784;9.336;2022-11-20T02:00:30;10.88;;;3.58;;
37785;SDS011;23625;48.784;9.336;2022-11-20T02:02:57;9.07;;;4.10;;
37785;SDS011;23625;48.784;9.336;2022-11-20T02:07:54;7.20;;;3.58;;
37785;SDS011;23625;48.784;9.336;2022-11-20T02:10:22;5.97;;;3.30;;
37785;SDS011;23625;48.784;9.336;2022-11-20T02:12:48;9.55;;;3.22;;
37785;SDS011;23625;48.784;9.336;2022-11-20T02:15:33;5.25;;;3.50;;
37785;SDS011;23625;48.784;9.336;2022-11-20T02:17:59;7.07;;;3.35;;
37785;SDS011;23625;48.784;9.336;2022-11-20T02:20:25;7.10;;;3.85;;
37785;SDS011;23625;48.784;9.336;2022-11-20T02:22:53;6.75;;;3.50;;
37785;SDS011;23625;48.784;9.336;2022-11-20T02:25:30;12.70;;;3.78;;
37785;SDS011;23625;48.784;9.336;2022-11-20T02:27:57;5.13;;;2.92;;
37785;SDS011;23625;48.784;9.336;2022-11-20T02:30:23;6.18;;;3.45;;
37785;SDS011;23625;48.784;9.336;2022-11-20T02:32:49;8.05;;;3.08;;
37785;SDS011;23625;48.784;9.336;2022-11-20T02:37:43;10.10;;;3.45;;
37785;SDS011;23625;48.784;9.336;2022-11-20T02:40:09;7.65;;;3.78;;
37785;SDS011;23625;48.784;9.336;2022-11-20T02:42:36;5.22;;;3.33;;
37785;SDS011;23625;48.784;9.336;2022-11-20T02:45:03;9.90;;;3.55;;
37785;SDS011;23625;48.784;9.336;2022-11-20T02:47:29;5.05;;;2.80;;
37785;SDS011;23625;48.784;9.336;2022-11-20T02:49:54;5.75;;;2.78;;
37785;SDS011;23625;48.784;9.336;2022-11-20T02:52:20;5.78;;;3.15;;
37785;SDS011;23625;48.784;9.336;2022-11-20T02:54:46;10.70;;;4.18;;
37785;SDS011;23625;48.784;9.336;2022-11-20T02:57:11;7.28;;;3.50;;
37785;SDS011;23625;48.784;9.336;2022-11-20T02:59:37;5.60;;;3.15;;
37785;SDS011;23625;48.784;9.336;2022-11-20T03:02:02;8.75;;;3.75;;
37785;SDS011;23625;48.784;9.336;2022-11-20T03:04:28;8.93;;;3.63;;
37785;SDS011;23625;48.784;9.336;2022-11-20T03:06:53;5.03;;;3.50;;
37785;SDS011;23625;48.784;9.336;2022-11-20T03:09:19;6.15;;;3.67;;
37785;SDS011;23625;48.784;9.336;2022-11-20T03:11:45;7.68;;;4.15;;
37785;SDS011;23625;48.784;9.336;2022-11-20T03:14:11;10.00;;;3.67;;
37785;SDS011;23625;48.784;9.336;2022-11-20T03:16:36;8.52;;;4.50;;
37785;SDS011;23625;48.784;9.336;2022-11-20T03:19:02;6.93;;;4.20;;
37785;SDS011;23625;48.784;9.336;2022-11-20T03:21:27;8.63;;;3.85;;
37785;SDS011;23625;48.784;9.336;2022-11-20T03:23:53;8.57;;;3.70;;
37785;SDS011;23625;48.784;9.336;2022-11-20T03:26:20;8.77;;;3.85;;
37785;SDS011;23625;48.784;9.336;2022-11-20T03:28:49;11.10;;;4.00;;
37785;SDS011;23625;48.784;9.336;2022-11-20T03:31:20;11.60;;;3.78;;
37785;SDS011;23625;48.784;9.336;2022-11-20T03:33:47;10.38;;;4.30;;
37785;SDS011;23625;48.784;9.336;2022-11-20T03:36:13;7.03;;;4.05;;
37785;SDS011;23625;48.784;9.336;2022-11-20T03:38:41;8.82;;;4.32;;
37785;SDS011;23625;48.784;9.336;2022-11-20T03:41:08;9.75;;;4.32;;
37785;SDS011;23625;48.784;9.336;2022-11-20T03:43:36;7.55;;;3.90;;
37785;SDS011;23625;48.784;9.336;2022-11-20T03:46:02;9.07;;;3.88;;
37785;SDS011;23625;48.784;9.336;2022-11-20T03:48:28;7.95;;;3.90;;
37785;SDS011;23625;48.784;9.336;2022-11-20T03:53:40;7.30;;;4.17;;
37785;SDS011;23625;48.784;9.336;2022-11-20T03:56:07;9.40;;;3.58;;
37785;SDS011;23625;48.784;9.336;2022-11-20T03:58:34;8.73;;;3.92;;
37785;SDS011;23625;48.784;9.336;2022-11-20T04:01:10;9.35;;;3.85;;
37785;SDS011;23625;48.784;9.336;2022-11-20T04:03:42;11.23;;;4.18;;
37785;SDS011;23625;48.784;9.336;2022-11-20T04:06:13;9.10;;;4.28;;
37785;SDS011;23625;48.784;9.336;2022-11-20T04:08:41;10.10;;;4.15;;
37785;SDS011;23625;48.784;9.336;2022-11-20T04:13:38;10.38;;;3.90;;
37785;SDS011;23625;48.784;9.336;2022-11-20T04:16:05;6.00;;;3.50;;
37785;SDS011;23625;48.784;9.336;2022-11-20T04:18:31;6.65;;;3.85;;
37785;SDS011;23625;48.784;9.336;2022-11-20T04:20:57;8.07;;;4.03;;
37785;SDS011;23625;48.784;9.336;2022-11-20T04:23:23;9.35;;;4.30;;
37785;SDS011;23625;48.784;9.336;2022-11-20T04:25:49;10.70;;;4.03;;
37785;SDS011;23625;48.784;9.336;2022-11-20T04:28:15;9.30;;;4.22;;
37785;SDS011;23625;48.784;9.336;2022-11-20T04:30:41;8.32;;;3.75;;
37785;SDS011;23625;48.784;9.336;2022-11-20T04:33:07;7.72;;;3.58;;
37785;SDS011;23625;48.784;9.336;2022-11-20T04:35:35;7.90;;;3.92;;
37785;SDS011;23625;48.784;9.336;2022-11-20T04:38:02;7.40;;;3.35;;
37785;SDS011;23625;48.784;9.336;2022-11-20T04:40:28;7.55;;;3.55;;
37785;SDS011;23625;48.784;9.336;2022-11-20T04:42:55;7.35;;;3.50;;
37785;SDS011;23625;48.784;9.336;2022-11-20T04:45:20;6.97;;;3.17;;
37785;SDS011;23625;48.784;9.336;2022-11-20T04:47:47;7.28;;;3.03;;
37785;SDS011;23625;48.784;9.336;2022-11-20T04:50:12;5.70;;;3.10;;
37785;SDS011;23625;48.784;9.336;2022-11-20T04:52:38;8.32;;;3.40;;
37785;SDS011;23625;48.784;9.336;2022-11-20T04:55:04;7.10;;;3.75;;
37785;SDS011;23625;48.784;9.336;2022-11-20T04:57:29;6.50;;;3.65;;
37785;SDS011;23625;48.784;9.336;2022-11-20T04:59:55;7.85;;;3.20;;
37785;SDS011;23625;48.784;9.336;2022-11-20T05:02:21;6.90;;;2.97;;
37785;SDS011;23625;48.784;9.336;2022-11-20T05:04:46;9.50;;;3.40;;
37785;SDS011;23625;48.784;9.336;2022-11-20T05:07:12;9.32;;;3.58;;
37785;SDS011;23625;48.784;9.336;2022-11-20T05:09:38;5.28;;;3.05;;
37785;SDS011;23625;48.784;9.336;2022-11-20T05:12:03;6.40;;;3.33;;
37785;SDS011;23625;48.784;9.336;2022-11-20T05:14:29;5.45;;;3.15;;
37785;SDS011;23625;48.784;9.336;2022-11-20T05:16:55;10.98;;;2.85;;
37785;SDS011;23625;48.784;9.336;2022-11-20T08:06:55;4.28;;;2.60;;
37785;SDS011;23625;48.784;9.336;2022-11-20T08:09:21;4.07;;;2.35;;
37785;SDS011;23625;48.784;9.336;2022-11-20T08:11:46;8.65;;;2.45;;
37785;SDS011;23625;48.784;9.336;2022-11-20T08:14:31;5.95;;;2.63;;
37785;SDS011;23625;48.784;9.336;2022-11-20T08:16:56;4.70;;;2.40;;
37785;SDS011;23625;48.784;9.336;2022-11-20T08:19:22;4.85;;;2.05;;
37785;SDS011;23625;48.784;9.336;2022-11-20T08:21:48;3.22;;;2.30;;
37785;SDS011;23625;48.784;9.336;2022-11-20T08:24:14;5.07;;;2.55;;
37785;SDS011;23625;48.784;9.336;2022-11-20T08:26:40;4.80;;;2.25;;
37785;SDS011;23625;48.784;9.336;2022-11-20T08:29:06;4.72;;;2.70;;
37785;SDS011;23625;48.784;9.336;2022-11-20T08:31:32;4.70;;;2.65;;
37785;SDS011;23625;48.784;9.336;2022-11-20T08:33:58;5.53;;;2.63;;
37785;SDS011;23625;48.784;9.336;2022-11-20T08:36:24;5.50;;;2.25;;
37785;SDS011;23625;48.784;9.336;2022-11-20T08:38:50;5.60;;;2.15;;
37785;SDS011;23625;48.784;9.336;2022-11-20T08:41:17;4.03;;;2.63;;
37785;SDS011;23625;48.784;9.336;2022-11-20T08:43:49;9.40;;;2.67;;
37785;SDS011;23625;48.784;9.336;2022-11-20T08:46:16;5.00;;;2.55;;
37785;SDS011;23625;48.784;9.336;2022-11-20T08:48:42;5.00;;;2.30;;
37785;SDS011;23625;48.784;9.336;2022-11-20T08:51:08;4.18;;;2.03;;
37785;SDS011;23625;48.784;9.336;2022-11-20T08:53:34;3.70;;;2.50;;
37785;SDS011;23625;48.784;9.336;2022-11-20T08:56:00;3.38;;;2.33;;
37785;SDS011;23625;48.784;9.336;2022-11-20T08:58:26;4.88;;;2.22;;
37785;SDS011;23625;48.784;9.336;2022-11-20T09:00:52;2.92;;;2.08;;
37785;SDS011;23625;48.784;9.336;2022-11-20T09:03:18;5.93;;;2.20;;
37785;SDS011;23625;48.784;9.336;2022-11-20T09:05:43;5.25;;;2.47;;
37785;SDS011;23625;48.784;9.336;2022-11-20T09:08:09;3.10;;;1.92;;
37785;SDS011;23625;48.784;9.336;2022-11-20T09:10:34;4.03;;;2.53;;
37785;SDS011;23625;48.784;9.336;2022-11-20T09:13:01;6.00;;;2.60;;
37785;SDS011;23625;48.784;9.336;2022-11-20T09:15:27;3.15;;;1.75;;
37785;SDS011;23625;48.784;9.336;2022-11-20T09:17:53;5.18;;;2.13;;
37785;SDS011;23625;48.784;9.336;2022-11-20T09:20:19;3.85;;;2.50;;
37785;SDS011;23625;48.784;9.336;2022-11-20T09:22:45;4.57;;;1.95;;
37785;SDS011;23625;48.784;9.336;2022-11-20T09:25:11;2.67;;;1.80;;
37785;SDS011;23625;48.784;9.336;2022-11-20T09:27:37;4.65;;;2.20;;
37785;SDS011;23625;48.784;9.336;2022-11-20T09:30:02;6.30;;;2.33;;
37785;SDS011;23625;48.784;9.336;2022-11-20T09:32:29;7.07;;;2.15;;
37785;SDS011;23625;48.784;9.336;2022-11-20T09:34:54;4.35;;;2.00;;
37785;SDS011;23625;48.784;9.336;2022-11-20T09:37:20;4.63;;;2.40;;
37785;SDS011;23625;48.784;9.336;2022-11-20T09:39:46;3.20;;;1.50;;
37785;SDS011;23625;48.784;9.336;2022-11-20T09:45:05;3.05;;;1.70;;
37785;SDS011;23625;48.784;9.336;2022-11-20T09:53:50;2.13;;;1.20;;
37785;SDS011;23625;48.784;9.336;2022-11-20T09:56:40;3.28;;;1.45;;
37785;SDS011;23625;48.784;9.336;2022-11-20T09:59:23;2.47;;;1.38;;
37785;SDS011;23625;48.784;9.336;2022-11-20T10:01:56;4.85;;;1.52;;
37785;SDS011;23625;48.784;9.336;2022-11-20T10:04:24;2.17;;;1.13;;
37785;SDS011;23625;48.784;9.336;2022-11-20T10:09:35;1.48;;;0.93;;
37785;SDS011;23625;48.784;9.336;2022-11-20T10:34:05;1.17;;;0.70;;
37785;SDS011;23625;48.784;9.336;2022-11-20T10:36:42;10.47;;;2.83;;
37785;SDS011;23625;48.784;9.336;2022-11-20T10:39:15;2.78;;;1.30;;
37785;SDS011;23625;48.784;9.336;2022-11-20T10:41:50;0.50;;;0.50;;
37785;SDS011;23625;48.784;9.336;2022-11-20T10:44:20;0.70;;;0.70;;
37785;SDS011;23625;48.784;9.336;2022-11-20T10:47:08;3.50;;;1.00;;
37785;SDS011;23625;48.784;9.336;2022-11-20T10:49:38;2.15;;;0.60;;
37785;SDS011;23625;48.784;9.336;2022-11-20T10:54:55;1.13;;;0.75;;
37785;SDS011;23625;48.784;9.336;2022-11-20T10:59:59;1.08;;;0.80;;
37785;SDS011;23625;48.784;9.336;2022-11-20T11:02:35;2.00;;;0.77;;
37785;SDS011;23625;48.784;9.336;2022-11-20T11:05:54;3.00;;;0.80;;
37785;SDS011;23625;48.784;9.336;2022-11-20T11:07:54;0.70;;;0.70;;
37785;SDS011;23625;48.784;9.336;2022-11-20T11:12:52;1.13;;;0.70;;
37785;SDS011;23625;48.784;9.336;2022-11-20T11:15:51;1.15;;;0.90;;
37785;SDS011;23625;48.784;9.336;2022-11-20T11:18:10;1.65;;;0.80;;
37785;SDS011;23625;48.784;9.336;2022-11-20T11:20:36;3.33;;;0.95;;
37785;SDS011;23625;48.784;9.336;2022-11-20T11:23:02;0.65;;;0.63;;
37785;SDS011;23625;48.784;9.336;2022-11-20T11:25:33;2.28;;;1.00;;
37785;SDS011;23625;48.784;9.336;2022-11-20T11:28:02;2.15;;;1.00;;
37785;SDS011;23625;48.784;9.336;2022-11-20T11:30:30;1.42;;;0.98;;
37785;SDS011;23625;48.784;9.336;2022-11-20T11:33:09;1.30;;;0.52;;
37785;SDS011;23625;48.784;9.336;2022-11-20T11:35:46;4.28;;;1.13;;
37785;SDS011;23625;48.784;9.336;2022-11-20T11:38:30;1.20;;;0.85;;
37785;SDS011;23625;48.784;9.336;2022-11-20T11:41:00;2.35;;;0.93;;
37785;SDS011;23625;48.784;9.336;2022-11-20T11:43:28;2.67;;;1.33;;
37785;SDS011;23625;48.784;9.336;2022-11-20T11:51:38;1.65;;;1.20;;
37785;SDS011;23625;48.784;9.336;2022-11-20T11:54:05;1.65;;;1.35;;
37785;SDS011;23625;48.784;9.336;2022-11-20T11:56:41;4.22;;;1.38;;
37785;SDS011;23625;48.784;9.336;2022-11-20T11:59:09;2.00;;;1.10;;
37785;SDS011;23625;48.784;9.336;2022-11-20T12:01:43;2.65;;;1.17;;
37785;SDS011;23625;48.784;9.336;2022-11-20T12:12:55;2.92;;;1.50;;
37785;SDS011;23625;48.784;9.336;2022-11-20T12:15:40;1.55;;;1.05;;
37785;SDS011;23625;48.784;9.336;2022-11-20T12:18:13;2.97;;;1.33;;
37785;SDS011;23625;48.784;9.336;2022-11-20T12:20:42;2.13;;;1.25;;
37785;SDS011;23625;48.784;9.336;2022-11-20T12:23:20;3.55;;;1.30;;
37785;SDS011;23625;48.784;9.336;2022-11-20T12:26:10;2.17;;;1.13;;
37785;SDS011;23625;48.784;9.336;2022-11-20T12:28:52;2.97;;;1.15;;
37785;SDS011;23625;48.784;9.336;2022-11-20T12:33:54;4.50;;;1.23;;
37785;SDS011;23625;48.784;9.336;2022-11-20T12:42:06;3.97;;;1.17;;
37785;SDS011;23625;48.784;9.336;2022-11-20T12:45:14;6.00;;;1.38;;
37785;SDS011;23625;48.784;9.336;2022-11-20T12:48:04;2.72;;;1.30;;
37785;SDS011;23625;48.784;9.336;2022-11-20T13:02:14;2.55;;;1.20;;
37785;SDS011;23625;48.784;9.336;2022-11-20T13:05:21;2.97;;;0.70;;
37785;SDS011;23625;48.784;9.336;2022-11-20T13:07:53;3.92;;;1.25;;
37785;SDS011;23625;48.784;9.336;2022-11-20T13:13:11;2.08;;;0.90;;
37785;SDS011;23625;48.784;9.336;2022-11-20T13:16:07;1.98;;;1.08;;
37785;SDS011;23625;48.784;9.336;2022-11-20T13:18:38;2.92;;;1.20;;
37785;SDS011;23625;48.784;9.336;2022-11-20T13:21:14;1.20;;;0.60;;
37785;SDS011;23625;48.784;9.336;2022-11-20T13:23:40;3.22;;;0.45;;
37785;SDS011;23625;48.784;9.336;2022-11-20T13:26:13;5.25;;;0.70;;
37785;SDS011;23625;48.784;9.336;2022-11-20T13:28:41;2.17;;;0.80;;
37785;SDS011;23625;48.784;9.336;2022-11-20T13:34:14;4.72;;;0.60;;
37785;SDS011;23625;48.784;9.336;2022-11-20T13:36:55;1.52;;;0.60;;
37785;SDS011;23625;48.784;9.336;2022-11-20T13:39:26;2.90;;;0.77;;
37785;SDS011;23625;48.784;9.336;2022-11-20T13:41:56;3.40;;;0.80;;
37785;SDS011;23625;48.784;9.336;2022-11-20T13:44:25;1.45;;;0.50;;
37785;SDS011;23625;48.784;9.336;2022-11-20T13:47:00;4.72;;;0.57;;
37785;SDS011;23625;48.784;9.336;2022-11-20T13:49:27;2.65;;;0.82;;
37785;SDS011;23625;48.784;9.336;2022-11-20T14:00:42;4.35;;;0.80;;
37785;SDS011;23625;48.784;9.336;2022-11-20T14:03:17;2.65;;;0.77;;
37785;SDS011;23625;48.784;9.336;2022-11-20T14:05:52;2.08;;;0.75;;
37785;SDS011;23625;48.784;9.336;2022-11-20T14:08:37;0.70;;;0.60;;
37785;SDS011;23625;48.784;9.336;2022-11-20T14:16:23;1.42;;;0.60;;
37785;SDS011;23625;48.784;9.336;2022-11-20T14:18:51;3.55;;;1.58;;
37785;SDS011;23625;48.784;9.336;2022-11-20T14:21:23;4.30;;;0.90;;
37785;SDS011;23625;48.784;9.336;2022-11-20T14:23:51;3.35;;;0.93;;
37785;SDS011;23625;48.784;9.336;2022-11-20T14:26:17;3.00;;;0.70;;
37785;SDS011;23625;48.784;9.336;2022-11-20T14:28:49;1.40;;;0.47;;
37785;SDS011;23625;48.784;9.336;2022-11-20T14:31:25;2.75;;;0.63;;
37785;SDS011;23625;48.784;9.336;2022-11-20T14:33:53;5.75;;;0.75;;
37785;SDS011;23625;48.784;9.336;2022-11-20T14:36:20;2.05;;;0.63;;
37785;SDS011;23625;48.784;9.336;2022-11-20T14:38:49;5.72;;;1.85;;
37785;SDS011;23625;48.784;9.336;2022-11-20T14:41:19;1.88;;;0.60;;
37785;SDS011;23625;48.784;9.336;2022-11-20T14:43:52;4.75;;;1.80;;
37785;SDS011;23625;48.784;9.336;2022-11-20T14:46:22;9.73;;;3.60;;
37785;SDS011;23625;48.784;9.336;2022-11-20T14:48:53;3.67;;;1.55;;
37785;SDS011;23625;48.784;9.336;2022-11-20T14:51:31;5.15;;;2.00;;
37785;SDS011;23625;48.784;9.336;2022-11-20T14:56:35;2.17;;;1.10;;
37785;SDS011;23625;48.784;9.336;2022-11-20T14:59:01;9.82;;;1.02;;
37785;SDS011;23625;48.784;9.336;2022-11-20T15:01:27;3.55;;;0.90;;
37785;SDS011;23625;48.784;9.336;2022-11-20T15:03:59;3.90;;;1.13;;
37785;SDS011;23625;48.784;9.336;2022-11-20T15:06:34;5.05;;;1.58;;
37785;SDS011;23625;48.784;9.336;2022-11-20T15:09:02;16.75;;;7.82;;
37785;SDS011;23625;48.784;9.336;2022-11-20T15:11:38;4.65;;;2.10;;
37785;SDS011;23625;48.784;9.336;2022-11-20T15:14:05;10.55;;;4.18;;
37785;SDS011;23625;48.784;9.336;2022-11-20T15:16:34;5.90;;;2.50;;
37785;SDS011;23625;48.784;9.336;2022-11-20T15:18:59;2.60;;;1.20;;
37785;SDS011;23625;48.784;9.336;2022-11-20T15:21:27;1.90;;;1.27;;
37785;SDS011;23625;48.784;9.336;2022-11-20T15:23:54;2.15;;;1.15;;
37785;SDS011;23625;48.784;9.336;2022-11-20T15:26:22;5.05;;;3.38;;
37785;SDS011;23625;48.784;9.336;2022-11-20T15:28:50;8.18;;;3.47;;
37785;SDS011;23625;48.784;9.336;2022-11-20T15:31:20;8.00;;;3.00;;
37785;SDS011;23625;48.784;9.336;2022-11-20T15:33:48;3.72;;;2.28;;
37785;SDS011;23625;48.784;9.336;2022-11-20T15:36:14;10.55;;;4.45;;
37785;SDS011;23625;48.784;9.336;2022-11-20T15:38:40;12.90;;;2.78;;
37785;SDS011;23625;48.784;9.336;2022-11-20T15:41:06;11.93;;;3.58;;
37785;SDS011;23625;48.784;9.336;2022-11-20T15:43:32;8.07;;;2.30;;
37785;SDS011;23625;48.784;9.336;2022-11-20T15:48:27;6.85;;;1.90;;
37785;SDS011;23625;48.784;9.336;2022-11-20T15:50:57;5.88;;;1.67;;
37785;SDS011;23625;48.784;9.336;2022-11-20T15:53:23;5.28;;;1.70;;
37785;SDS011;23625;48.784;9.336;2022-11-20T15:55:49;3.50;;;1.88;;
37785;SDS011;23625;48.784;9.336;2022-11-20T15:58:14;4.85;;;1.98;;
37785;SDS011;23625;48.784;9.336;2022-11-20T16:00:41;5.93;;;2.45;;
37785;SDS011;23625;48.784;9.336;2022-11-20T16:03:11;8.40;;;3.63;;
37785;SDS011;23625;48.784;9.336;2022-11-20T16:05:37;8.75;;;3.25;;
37785;SDS011;23625;48.784;9.336;2022-11-20T16:08:03;21.98;;;9.43;;
37785;SDS011;23625;48.784;9.336;2022-11-20T16:10:29;11.63;;;3.70;;
37785;SDS011;23625;48.784;9.336;2022-11-20T16:12:55;8.25;;;4.10;;
37785;SDS011;23625;48.784;9.336;2022-11-20T16:15:39;11.02;;;5.75;;
37785;SDS011;23625;48.784;9.336;2022-11-20T16:18:10;3.78;;;2.58;;
37785;SDS011;23625;48.784;9.336;2022-11-20T16:20:38;6.03;;;3.33;;
37785;SDS011;23625;48.784;9.336;2022-11-20T16:23:04;19.60;;;8.50;;
37785;SDS011;23625;48.784;9.336;2022-11-20T16:25:30;7.50;;;5.38;;
37785;SDS011;23625;48.784;9.336;2022-11-20T16:27:56;6.30;;;3.45;;
37785;SDS011;23625;48.784;9.336;2022-11-20T16:30:22;14.77;;;7.38;;
37785;SDS011;23625;48.784;9.336;2022-11-20T16:32:48;9.77;;;5.72;;
37785;SDS011;23625;48.784;9.336;2022-11-20T16:35:13;16.27;;;8.90;;
37785;SDS011;23625;48.784;9.336;2022-11-20T16:37:39;32.00;;;13.13;;
37785;SDS011;23625;48.784;9.336;2022-11-20T16:40:05;9.20;;;2.47;;
37785;SDS011;23625;48.784;9.336;2022-11-20T16:42:35;11.95;;;5.38;;
37785;SDS011;23625;48.784;9.336;2022-11-20T16:45:01;15.93;;;5.30;;
37785;SDS011;23625;48.784;9.336;2022-11-20T16:47:28;14.75;;;5.35;;
37785;SDS011;23625;48.784;9.336;2022-11-20T16:49:57;50.38;;;14.35;;
37785;SDS011;23625;48.784;9.336;2022-11-20T16:52:22;27.98;;;7.43;;
37785;SDS011;23625;48.784;9.336;2022-11-20T16:54:48;29.67;;;9.13;;
37785;SDS011;23625;48.784;9.336;2022-11-20T16:57:13;21.10;;;7.97;;
37785;SDS011;23625;48.784;9.336;2022-11-20T16:59:39;19.45;;;7.68;;
37785;SDS011;23625;48.784;9.336;2022-11-20T17:02:05;12.63;;;6.13;;
37785;SDS011;23625;48.784;9.336;2022-11-20T17:04:31;8.18;;;3.35;;
37785;SDS011;23625;48.784;9.336;2022-11-20T17:06:56;7.97;;;2.45;;
37785;SDS011;23625;48.784;9.336;2022-11-20T17:09:22;5.15;;;2.60;;
37785;SDS011;23625;48.784;9.336;2022-11-20T17:11:47;5.43;;;2.30;;
37785;SDS011;23625;48.784;9.336;2022-11-20T17:14:13;5.55;;;2.10;;
37785;SDS011;23625;48.784;9.336;2022-11-20T17:16:39;5.03;;;2.17;;
37785;SDS011;23625;48.784;9.336;2022-11-20T17:19:05;4.28;;;2.83;;
37785;SDS011;23625;48.784;9.336;2022-11-20T17:21:31;6.10;;;2.70;;
37785;SDS011;23625;48.784;9.336;2022-11-20T17:24:00;7.18;;;3.42;;
37785;SDS011;23625;48.784;9.336;2022-11-20T17:26:31;8.85;;;4.28;;
37785;SDS011;23625;48.784;9.336;2022-11-20T17:28:58;11.68;;;5.13;;
37785;SDS011;23625;48.784;9.336;2022-11-20T17:31:28;9.10;;;4.07;;
37785;SDS011;23625;48.784;9.336;2022-11-20T17:33:56;6.72;;;3.70;;
37785;SDS011;23625;48.784;9.336;2022-11-20T17:36:24;12.65;;;6.18;;
37785;SDS011;23625;48.784;9.336;2022-11-20T17:38:50;19.35;;;6.57;;
37785;SDS011;23625;48.784;9.336;2022-11-20T17:41:20;10.65;;;4.88;;
37785;SDS011;23625;48.784;9.336;2022-11-20T17:43:47;5.97;;;2.90;;
37785;SDS011;23625;48.784;9.336;2022-11-20T17:46:15;8.85;;;3.38;;
37785;SDS011;23625;48.784;9.336;2022-11-20T17:48:42;11.50;;;3.15;;
37785;SDS011;23625;48.784;9.336;2022-11-20T17:51:12;5.47;;;2.80;;
37785;SDS011;23625;48.784;9.336;2022-11-20T17:53:49;8.30;;;4.32;;
37785;SDS011;23625;48.784;9.336;2022-11-20T17:56:16;7.28;;;3.10;;
37785;SDS011;23625;48.784;9.336;2022-11-20T17:59:04;6.65;;;2.92;;
37785;SDS011;23625;48.784;9.336;2022-11-20T18:01:31;10.60;;;4.70;;
37785;SDS011;23625;48.784;9.336;2022-11-20T18:03:57;9.13;;;4.47;;
37785;SDS011;23625;48.784;9.336;2022-11-20T18:06:25;5.10;;;2.90;;
37785;SDS011;23625;48.784;9.336;2022-11-20T18:08:51;8.88;;;4.82;;
37785;SDS011;23625;48.784;9.336;2022-11-20T18:11:19;10.85;;;4.85;;
37785;SDS011;23625;48.784;9.336;2022-11-20T18:13:48;7.25;;;3.28;;
37785;SDS011;23625;48.784;9.336;2022-11-20T18:16:38;9.55;;;3.45;;
37785;SDS011;23625;48.784;9.336;2022-11-20T18:19:09;8.90;;;3.95;;
37785;SDS011;23625;48.784;9.336;2022-11-20T18:21:36;6.22;;;2.97;;
37785;SDS011;23625;48.784;9.336;2022-11-20T18:24:02;9.85;;;3.42;;
37785;SDS011;23625;48.784;9.336;2022-11-20T18:26:27;9.82;;;5.53;;
37785;SDS011;23625;48.784;9.336;2022-11-20T18:28:53;5.03;;;2.05;;
37785;SDS011;23625;48.784;9.336;2022-11-20T18:31:19;5.22;;;1.95;;
37785;SDS011;23625;48.784;9.336;2022-11-20T18:33:44;5.78;;;2.35;;
37785;SDS011;23625;48.784;9.336;2022-11-20T18:36:11;8.32;;;2.85;;
37785;SDS011;23625;48.784;9.336;2022-11-20T18:38:41;6.32;;;2.97;;
37785;SDS011;23625;48.784;9.336;2022-11-20T18:41:12;8.93;;;2.88;;
37785;SDS011;23625;48.784;9.336;2022-11-20T18:43:57;23.35;;;10.50;;
37785;SDS011;23625;48.784;9.336;2022-11-20T18:46:41;9.65;;;3.20;;
37785;SDS011;23625;48.784;9.336;2022-11-20T18:49:07;6.53;;;2.40;;
37785;SDS011;23625;48.784;9.336;2022-11-20T18:51:34;5.18;;;1.90;;
37785;SDS011;23625;48.784;9.336;2022-11-20T18:54:00;14.43;;;3.47;;
37785;SDS011;23625;48.784;9.336;2022-11-20T18:56:27;4.70;;;2.38;;
37785;SDS011;23625;48.784;9.336;2022-11-20T18:58:53;9.07;;;2.45;;
37785;SDS011;23625;48.784;9.336;2022-11-20T19:01:18;8.48;;;3.00;;
37785;SDS011;23625;48.784;9.336;2022-11-20T19:03:44;7.20;;;1.85;;
37785;SDS011;23625;48.784;9.336;2022-11-20T19:06:14;11.70;;;4.25;;
37785;SDS011;23625;48.784;9.336;2022-11-20T19:08:40;8.68;;;3.25;;
37785;SDS011;23625;48.784;9.336;2022-11-20T19:11:06;16.23;;;4.90;;
37785;SDS011;23625;48.784;9.336;2022-11-20T19:13:33;5.28;;;2.22;;
37785;SDS011;23625;48.784;9.336;2022-11-20T19:16:01;13.70;;;4.72;;
37785;SDS011;23625;48.784;9.336;2022-11-20T19:18:36;2.83;;;1.10;;
37785;SDS011;23625;48.784;9.336;2022-11-20T19:21:06;6.03;;;2.83;;
37785;SDS011;23625;48.784;9.336;2022-11-20T19:23:32;29.05;;;8.50;;
37785;SDS011;23625;48.784;9.336;2022-11-20T19:25:58;5.95;;;3.22;;
37785;SDS011;23625;48.784;9.336;2022-11-20T19:28:25;7.05;;;3.00;;
37785;SDS011;23625;48.784;9.336;2022-11-20T19:30:51;47.00;;;11.65;;
37785;SDS011;23625;48.784;9.336;2022-11-20T19:33:17;20.20;;;5.68;;